Аэропорт: Звартноц. Ереван

ICAO: UDYZ

METAR:
2019-07-23 18:30:00
UDYZ 231830Z 04017G30KT 9999 NSC 29/14 Q1004 R09/010070 NOSIG
METAR:
2019-07-23 15:05:00
TAF UDYZ 231505Z 2318/2418 07006KT 9999 FEW040 TEMPO 2318/2401 03026G36KT -TSRA FEW040CB